Depesze METAR z lotnisk oddalonych od Rybnika do 200 kilometrów

LKMT - Ostrava/Mosnov, Czech Republic
Distance from station: SSW 55km
Updated: Fri, 19/10/2018 05:30 CEST
Mist, Partly cloudy
Mist, Partly cloudy
 Wind from ESE
Wind: ESE 6 km/h
Temperature: 7°C
Dew Point: 6°C
Humidity: 93%
Barometer: 1021 hPa
Summary: Mist
Clouds: Partly Cloudy
Visibility: 1 km
2018/10/19 03:30 LKMT 190330Z 11003KT 040V130 1000 R22/P2000N R04/P2000N BR NSC 07/06 Q1021 NOSIG
EPKT - Katowice/Pyrzowi, Poland
Distance from station: NE 58km
Updated: Fri, 19/10/2018 05:30 CEST
Fog, Partly cloudy
Fog, Partly cloudy
 Wind from SW
Wind: SW 6 km/h
Temperature: 7°C
Dew Point: 6°C
Humidity: 93%
Barometer: 1021 hPa
Summary: Fog
Clouds: Partly Cloudy
Visibility: 0 km
Cloud details: Partly Cloudy 30 m
2018/10/19 03:30 EPKT 190330Z 23003KT 0200 R27/0650N FG SCT001 07/06 Q1021
 
EPKK - Krakow/Balice, Poland
Distance from station: E 91km
Updated: Fri, 19/10/2018 05:30 CEST
Fog, Mostly cloudy
Fog, Mostly cloudy
 Wind from S
Wind: S 6 km/h
Temperature: 10°C
Dew Point: 10°C
Humidity: 100%
Barometer: 1020 hPa
Summary: Fog
Clouds: Mostly Cloudy
Visibility: 0 km
Cloud details: Mostly Cloudy 30 m
2018/10/19 03:30 EPKK 190330Z 19003KT 160V220 0200 R25/0250N FG BKN001 10/10 Q1020
LZZI - Zilina, Slovakia
Distance from station: S 95km
Updated: Fri, 19/10/2018 05:30 CEST
Clear
Clear
 Wind from varies
Wind: varies 4 km/h
Temperature: 8°C
Dew Point: 7°C
Humidity: 93%
Barometer: 1020 hPa
Summary: Clear
Visibility: greater than 10 km
2018/10/19 03:30 LZZI 190330Z VRB02KT CAVOK 08/07 Q1020
 
LKKU - Kunovice, Czech Republic
Distance from station: SW 139km
Updated: Thu, 18/10/2018 16:00 CEST
NOT Current
Clear
Clear
 Wind from calm
Wind: Calm
Temperature: 19°C
Dew Point: 11°C
Humidity: 60%
Barometer: 1018 hPa
Summary: Clear
Visibility: greater than 10 km
2018/10/18 14:00 LKKU 181400Z 00000KT CAVOK 19/11 Q1018
EPWR - Wroclaw/Strachow, Poland
Distance from station: NW 163km
Updated: Fri, 19/10/2018 05:30 CEST
Fog, Overcast
Fog, Overcast
 Wind from NW
Wind: NW 17 km/h
Temperature: 10°C
Wind Chill: 8°C
Dew Point: 10°C
Humidity: 100%
Barometer: 1022 hPa
Summary: Fog
Clouds: Overcast
Visibility: 1 km
Cloud details: Overcast 61 m
2018/10/19 03:30 EPWR 190330Z 32009KT 0600 R29/1900N FG OVC002 10/10 Q1022
 
LZSL - Sliac, Slovakia
Distance from station: SSE 168km
Updated: Fri, 19/10/2018 05:30 CEST
Clear
Clear
 Wind from calm
Wind: Calm
Temperature: 6°C
Dew Point: 5°C
Humidity: 93%
Barometer: 1020 hPa
Summary: Clear
Visibility: greater than 10 km
2018/10/19 03:30 LZSL 190330Z 00000KT CAVOK 06/05 Q1020
LZTT - Poprad/Tatry, Slovakia
Distance from station: SE 168km
Updated: Fri, 19/10/2018 05:30 CEST
Clear
Clear
 Wind from W
Wind: W 9 km/h
Temperature: 8°C
Wind Chill: 6°C
Dew Point: 5°C
Humidity: 82%
Barometer: 1020 hPa
Summary: Clear
Visibility: greater than 10 km
2018/10/19 03:30 LZTT 190330Z 27005KT CAVOK 08/05 Q1020
 
LKTB - Brno/Turany, Czech Republic
Distance from station: SW 170km
Updated: Fri, 19/10/2018 05:30 CEST
Clear
Clear
 Wind from WNW
Wind: WNW 7 km/h
Temperature: 10°C
Wind Chill: 9°C
Dew Point: 7°C
Humidity: 82%
Barometer: 1021 hPa
Summary: Clear
Visibility: greater than 10 km
2018/10/19 03:30 LKTB 190330Z 30004KT CAVOK 10/07 Q1021 NOSIG
LZPP - Piestany, Slovakia
Distance from station: SSW 171km
Updated: Fri, 19/10/2018 05:30 CEST
Clear
Clear
 Wind from NNE
Wind: NNE 11 km/h
Temperature: 9°C
Wind Chill: 7°C
Dew Point: 7°C
Humidity: 87%
Barometer: 1019 hPa
Clouds: Clear
Visibility: 10 km
2018/10/19 03:30 LZPP 190330Z AUTO 02006KT 9999 NCD 09/07 Q1019
 
EPLL - Lodz/Lublinek, Poland
Distance from station: NNE 191km
Updated: Fri, 19/10/2018 05:30 CEST
Patches of fog, Mist, Partly cloudy
Patches of fog, Mist, Partly cloudy
 Wind from varies
Wind: varies 4 km/h
Temperature: 10°C
Dew Point: 9°C
Humidity: 94%
Barometer: 1020 hPa
Summary: Patches of fog, Mist
Clouds: Partly Cloudy
Visibility: 1 km
2018/10/19 03:30 EPLL 190330Z VRB02KT 1400 0800NE R25/P2000N BCFG BR NSC 10/09 Q1020
LKPD - Pardubice, Czech Republic
Distance from station: W 200km
Updated: Fri, 19/10/2018 05:00 CEST
Partly Cloudy
Partly Cloudy
 Wind from calm
Wind: Calm
Temperature: 8°C
Dew Point: 7°C
Humidity: 93%
Barometer: 1022 hPa
Clouds: Partly Cloudy
Visibility: 6 km
2018/10/19 03:00 LKPD 190300Z 00000KT 6000 NSC 08/07 Q1022

Metar display script from Saratoga-Weather.org